createdAt,value
2017-03-12T00:00:47.932Z,1011.53
2017-03-12T00:01:49.189Z,1011.49
2017-03-12T00:02:50.420Z,1011.5
2017-03-12T00:03:51.758Z,1011.48
2017-03-12T00:04:53.008Z,1011.49
2017-03-12T00:05:54.255Z,1011.47
2017-03-12T00:06:55.500Z,1011.47
2017-03-12T00:07:56.817Z,1011.45
2017-03-12T00:08:58.086Z,1011.48
2017-03-12T00:09:59.372Z,1011.42
2017-03-12T00:11:00.611Z,1011.44
2017-03-12T00:12:01.878Z,1011.42
2017-03-12T00:13:03.123Z,1011.42
2017-03-12T00:14:04.493Z,1011.38
2017-03-12T00:15:05.726Z,1011.38
2017-03-12T00:16:06.980Z,1011.38
2017-03-12T00:17:08.203Z,1011.36
2017-03-12T00:18:09.576Z,1011.31
2017-03-12T00:19:10.756Z,1011.33
2017-03-12T00:20:12.000Z,1011.38
2017-03-12T00:21:13.298Z,1011.26
2017-03-12T00:22:14.507Z,1011.3
2017-03-12T00:23:15.830Z,1011.28
2017-03-12T00:24:17.189Z,1011.25
2017-03-12T00:25:18.450Z,1011.25
2017-03-12T00:26:19.745Z,1011.22
2017-03-12T00:27:21.002Z,1011.21
2017-03-12T00:28:22.238Z,1011.17
2017-03-12T00:29:23.478Z,1011.17
2017-03-12T00:30:24.714Z,1011.13
2017-03-12T00:31:25.954Z,1011.16
2017-03-12T00:32:27.222Z,1011.14
2017-03-12T00:33:28.455Z,1011.09
2017-03-12T00:34:29.863Z,1011.12
2017-03-12T00:35:31.192Z,1011.12
2017-03-12T00:36:32.474Z,1011.15
2017-03-12T00:37:33.728Z,1011.13
2017-03-12T00:38:34.970Z,1011.11
2017-03-12T00:39:36.210Z,1011.15
2017-03-12T00:40:37.454Z,1011.16
2017-03-12T00:41:38.719Z,1011.16
2017-03-12T00:42:39.939Z,1011.12
2017-03-12T00:43:41.330Z,1011.14
2017-03-12T00:44:42.592Z,1011.1
2017-03-12T00:45:43.854Z,1011.1
2017-03-12T00:46:45.071Z,1011.11
2017-03-12T00:47:46.301Z,1011.11
2017-03-12T00:48:47.568Z,1011.09
2017-03-12T00:49:48.813Z,1011.11
2017-03-12T00:50:50.067Z,1011.07
2017-03-12T00:51:51.333Z,1011.07
2017-03-12T00:52:52.572Z,1011.08
2017-03-12T00:53:53.807Z,1011.08
2017-03-12T00:54:55.175Z,1011.04
2017-03-12T00:55:56.417Z,1011.04
2017-03-12T00:56:57.668Z,1011.08
2017-03-12T00:57:58.896Z,1011
2017-03-12T00:59:00.191Z,1011.03
2017-03-12T01:00:01.445Z,1010.99
2017-03-12T01:01:02.795Z,1011
2017-03-12T01:02:04.031Z,1011.01
2017-03-12T01:03:05.266Z,1010.99
2017-03-12T01:04:06.519Z,1011
2017-03-12T01:05:07.771Z,1011
2017-03-12T01:06:09.091Z,1011.03
2017-03-12T01:07:10.275Z,1011.04
2017-03-12T01:08:11.724Z,1011.02
2017-03-12T01:09:12.975Z,1011.02
2017-03-12T01:10:14.216Z,1010.99
2017-03-12T01:11:15.455Z,1011
2017-03-12T01:12:16.744Z,1011
2017-03-12T01:13:17.974Z,1011.02
2017-03-12T01:14:19.286Z,1010.99
2017-03-12T01:15:20.588Z,1010.96
2017-03-12T01:16:21.845Z,1010.95
2017-03-12T01:17:23.077Z,1010.94
2017-03-12T01:18:24.328Z,1010.92
2017-03-12T01:19:25.618Z,1010.9
2017-03-12T01:20:26.868Z,1010.91
2017-03-12T01:21:28.119Z,1010.91
2017-03-12T01:22:29.352Z,1010.88
2017-03-12T01:23:30.608Z,1010.9
2017-03-12T01:24:31.885Z,1010.87
2017-03-12T01:25:33.309Z,1010.87
2017-03-12T01:26:34.565Z,1010.81
2017-03-12T01:27:35.781Z,1010.83
2017-03-12T01:28:37.049Z,1010.86
2017-03-12T01:29:38.264Z,1010.81
2017-03-12T01:30:39.498Z,1010.81
2017-03-12T01:31:40.834Z,1010.83
2017-03-12T01:32:42.059Z,1010.79
2017-03-12T01:33:43.439Z,1010.8
2017-03-12T01:34:44.764Z,1010.8
2017-03-12T01:35:46.011Z,1010.79
2017-03-12T01:36:47.253Z,1010.84
2017-03-12T01:37:48.484Z,1010.81
2017-03-12T01:38:49.748Z,1010.77
2017-03-12T01:39:50.982Z,1010.75
2017-03-12T01:40:52.262Z,1010.77
2017-03-12T01:41:53.516Z,1010.76
2017-03-12T01:42:54.751Z,1010.74
2017-03-12T01:43:56.047Z,1010.72
2017-03-12T01:44:57.375Z,1010.71
2017-03-12T01:45:58.615Z,1010.71
2017-03-12T01:46:59.855Z,1010.73
2017-03-12T01:48:01.095Z,1010.75
2017-03-12T01:49:02.323Z,1010.73
2017-03-12T01:50:03.572Z,1010.77
2017-03-12T01:51:04.869Z,1010.8
2017-03-12T01:52:06.091Z,1010.78
2017-03-12T01:53:07.355Z,1010.76
2017-03-12T01:54:08.590Z,1010.78
2017-03-12T01:55:09.847Z,1010.8
2017-03-12T01:56:11.172Z,1010.78
2017-03-12T01:57:12.328Z,1010.79
2017-03-12T01:58:13.579Z,1010.76
2017-03-12T01:59:14.881Z,1010.73
2017-03-12T02:00:16.102Z,1010.75
2017-03-12T02:01:17.322Z,1010.75
2017-03-12T02:02:18.567Z,1010.75
2017-03-12T02:03:19.799Z,1010.74
2017-03-12T02:04:21.270Z,1010.73
2017-03-12T02:05:22.520Z,1010.7
2017-03-12T02:06:23.771Z,1010.75
2017-03-12T02:07:25.004Z,1010.72
2017-03-12T02:08:26.248Z,1010.7
2017-03-12T02:09:27.485Z,1010.69
2017-03-12T02:10:28.720Z,1010.65
2017-03-12T02:11:29.982Z,1010.67
2017-03-12T02:12:31.205Z,1010.63
2017-03-12T02:13:32.443Z,1010.68
2017-03-12T02:14:33.682Z,1010.66
2017-03-12T02:15:34.955Z,1010.63
2017-03-12T02:16:36.182Z,1010.6
2017-03-12T02:17:37.419Z,1010.61
2017-03-12T02:18:38.696Z,1010.56
2017-03-12T02:19:39.960Z,1010.59
2017-03-12T02:20:41.192Z,1010.56
2017-03-12T02:21:42.428Z,1010.56
2017-03-12T02:22:43.668Z,1010.55
2017-03-12T02:23:44.940Z,1010.58
2017-03-12T02:24:46.190Z,1010.54
2017-03-12T02:25:47.427Z,1010.55
2017-03-12T02:26:48.679Z,1010.55
2017-03-12T02:27:49.924Z,1010.54
2017-03-12T02:28:51.212Z,1010.56
2017-03-12T02:29:52.441Z,1010.54
2017-03-12T02:30:53.712Z,1010.5
2017-03-12T02:31:54.950Z,1010.49
2017-03-12T02:32:56.180Z,1010.5
2017-03-12T02:33:57.418Z,1010.51
2017-03-12T02:34:58.660Z,1010.47
2017-03-12T02:35:59.950Z,1010.51
2017-03-12T02:37:01.194Z,1010.48
2017-03-12T02:38:02.446Z,1010.53
2017-03-12T02:39:03.693Z,1010.48
2017-03-12T02:40:04.932Z,1010.49
2017-03-12T02:41:06.163Z,1010.54
2017-03-12T02:42:07.416Z,1010.51
2017-03-12T02:43:08.735Z,1010.56
2017-03-12T02:44:09.947Z,1010.6
2017-03-12T02:45:11.233Z,1010.56
2017-03-12T02:46:12.480Z,1010.58
2017-03-12T02:47:13.731Z,1010.61
2017-03-12T02:48:14.970Z,1010.57
2017-03-12T02:49:16.263Z,1010.59
2017-03-12T02:50:17.607Z,1010.6
2017-03-12T02:51:18.833Z,1010.61
2017-03-12T02:52:20.086Z,1010.6
2017-03-12T02:53:21.300Z,1010.59
2017-03-12T02:54:22.537Z,1010.56
2017-03-12T02:55:23.785Z,1010.59
2017-03-12T02:56:25.041Z,1010.58
2017-03-12T02:57:26.349Z,1010.55
2017-03-12T02:58:27.574Z,1010.55
2017-03-12T02:59:28.839Z,1010.57
2017-03-12T03:00:30.072Z,1010.55
2017-03-12T03:01:31.286Z,1010.56
2017-03-12T03:02:32.554Z,1010.53
2017-03-12T03:03:33.793Z,1010.54
2017-03-12T03:04:35.041Z,1010.53
2017-03-12T03:05:36.317Z,1010.53
2017-03-12T03:06:37.537Z,1010.55
2017-03-12T03:07:38.772Z,1010.54
2017-03-12T03:08:40.089Z,1010.54
2017-03-12T03:09:41.406Z,1010.57
2017-03-12T03:10:42.641Z,1010.57
2017-03-12T03:11:43.872Z,1010.55
2017-03-12T03:12:45.119Z,1010.55
2017-03-12T03:13:46.374Z,1010.58
2017-03-12T03:14:47.618Z,1010.57
2017-03-12T03:15:48.940Z,1010.55
2017-03-12T03:16:50.176Z,1010.54
2017-03-12T03:17:51.418Z,1010.56
2017-03-12T03:18:52.655Z,1010.53
2017-03-12T03:19:53.906Z,1010.53
2017-03-12T03:20:55.163Z,1010.51
2017-03-12T03:21:56.392Z,1010.53
2017-03-12T03:22:57.646Z,1010.55
2017-03-12T03:23:58.996Z,1010.54
2017-03-12T03:25:00.229Z,1010.55
2017-03-12T03:26:01.488Z,1010.53
2017-03-12T03:27:02.719Z,1010.57
2017-03-12T03:28:03.937Z,1010.57
2017-03-12T03:29:05.244Z,1010.57
2017-03-12T03:30:06.501Z,1010.55
2017-03-12T03:31:07.711Z,1010.56
2017-03-12T03:32:08.947Z,1010.52
2017-03-12T03:33:10.261Z,1010.5
2017-03-12T03:34:11.505Z,1010.49
2017-03-12T03:35:12.792Z,1010.48
2017-03-12T03:36:14.042Z,1010.44
2017-03-12T03:37:15.276Z,1010.45
2017-03-12T03:38:16.524Z,1010.45
2017-03-12T03:39:17.748Z,1010.42
2017-03-12T03:40:19.035Z,1010.43
2017-03-12T03:41:20.265Z,1010.43
2017-03-12T03:42:21.508Z,1010.39
2017-03-12T03:43:22.848Z,1010.38
2017-03-12T03:44:24.081Z,1010.32
2017-03-12T03:45:25.316Z,1010.33
2017-03-12T03:46:26.553Z,1010.37
2017-03-12T03:47:27.799Z,1010.38
2017-03-12T03:48:29.149Z,1010.37
2017-03-12T03:49:30.358Z,1010.37
2017-03-12T03:50:31.589Z,1010.38
2017-03-12T03:51:32.818Z,1010.37
2017-03-12T03:52:34.051Z,1010.36
2017-03-12T03:53:35.333Z,1010.35
2017-03-12T03:54:36.627Z,1010.35
2017-03-12T03:55:37.858Z,1010.33
2017-03-12T03:56:39.083Z,1010.37
2017-03-12T03:57:40.339Z,1010.33
2017-03-12T03:58:41.573Z,1010.35
2017-03-12T03:59:42.822Z,1010.34
2017-03-12T04:00:44.053Z,1010.41
2017-03-12T04:01:45.288Z,1010.43
2017-03-12T04:02:46.584Z,1010.38
2017-03-12T04:03:47.818Z,1010.4
2017-03-12T04:04:49.050Z,1010.42
2017-03-12T04:05:50.285Z,1010.4
2017-03-12T04:06:51.567Z,1010.39
2017-03-12T04:07:52.841Z,1010.39
2017-03-12T04:08:54.102Z,1010.38
2017-03-12T04:09:55.344Z,1010.4
2017-03-12T04:10:56.563Z,1010.45
2017-03-12T04:11:57.799Z,1010.4
2017-03-12T04:12:59.071Z,1010.38
2017-03-12T04:14:00.315Z,1010.36
2017-03-12T04:15:01.540Z,1010.41
2017-03-12T04:16:02.774Z,1010.38
2017-03-12T04:17:04.013Z,1010.4
2017-03-12T04:18:05.239Z,1010.4
2017-03-12T04:19:06.480Z,1010.39
2017-03-12T04:20:07.717Z,1010.42
2017-03-12T04:21:08.980Z,1010.39
2017-03-12T04:22:10.202Z,1010.38
2017-03-12T04:23:11.453Z,1010.44
2017-03-12T04:24:12.700Z,1010.41
2017-03-12T04:25:13.926Z,1010.37
2017-03-12T04:26:15.255Z,1010.36
2017-03-12T04:27:16.551Z,1010.37
2017-03-12T04:28:17.701Z,1010.32
2017-03-12T04:29:18.941Z,1010.29
2017-03-12T04:30:20.177Z,1010.27
2017-03-12T04:31:21.400Z,1010.31
2017-03-12T04:32:22.638Z,1010.3
2017-03-12T04:33:23.976Z,1010.27
2017-03-12T04:34:25.279Z,1010.32
2017-03-12T04:35:26.514Z,1010.32
2017-03-12T04:36:27.749Z,1010.37
2017-03-12T04:37:28.985Z,1010.31
2017-03-12T04:38:30.229Z,1010.28
2017-03-12T04:39:31.525Z,1010.23
2017-03-12T04:40:32.770Z,1010.27
2017-03-12T04:41:34.036Z,1010.26
2017-03-12T04:42:35.702Z,1010.14
2017-03-12T04:43:36.920Z,1010.15
2017-03-12T04:44:38.149Z,1010.17
2017-03-12T04:45:39.525Z,1010.16
2017-03-12T04:46:40.844Z,1010.14
2017-03-12T04:47:42.084Z,1010.15
2017-03-12T04:48:43.363Z,1010.11
2017-03-12T04:49:44.587Z,1010.11
2017-03-12T04:50:45.902Z,1010.11
2017-03-12T04:51:47.224Z,1010.08
2017-03-12T04:52:48.563Z,1010.07
2017-03-12T04:53:49.790Z,1010.06
2017-03-12T04:54:51.090Z,1010.08
2017-03-12T04:55:52.316Z,1010.09
2017-03-12T04:56:53.636Z,1010.09
2017-03-12T04:57:54.960Z,1010.12
2017-03-12T04:58:56.196Z,1010.09
2017-03-12T04:59:57.437Z,1010.09
2017-03-12T05:00:58.666Z,1010.12
2017-03-12T05:01:59.903Z,1010.06
2017-03-12T05:03:01.239Z,1010.13
2017-03-12T05:04:02.481Z,1010.07
2017-03-12T05:05:03.701Z,1010.07
2017-03-12T05:06:05.161Z,1010.09
2017-03-12T05:07:06.464Z,1010.08
2017-03-12T05:08:07.759Z,1010.07
2017-03-12T05:09:09.063Z,1010.07
2017-03-12T05:10:10.297Z,1010.09
2017-03-12T05:11:11.538Z,1010.01
2017-03-12T05:12:12.766Z,1010.04
2017-03-12T05:13:14.013Z,1010.04
2017-03-12T05:14:15.384Z,1010.07
2017-03-12T05:15:16.609Z,1010.06
2017-03-12T05:16:17.814Z,1010.02
2017-03-12T05:17:19.069Z,1010
2017-03-12T05:18:20.355Z,1010.04
2017-03-12T05:19:21.585Z,1010.06
2017-03-12T05:20:22.877Z,1010.08
2017-03-12T05:21:24.092Z,1010.07
2017-03-12T05:22:25.447Z,1010.08
2017-03-12T05:23:26.693Z,1010.01
2017-03-12T05:24:27.936Z,1010.06
2017-03-12T05:25:29.188Z,1010.03
2017-03-12T05:26:30.420Z,1010.06
2017-03-12T05:27:31.667Z,1010.05
2017-03-12T05:28:32.916Z,1010.04
2017-03-12T05:29:34.147Z,1010.02
2017-03-12T05:30:35.385Z,1010.05
2017-03-12T05:31:36.625Z,1010.03
2017-03-12T05:32:37.908Z,1009.98
2017-03-12T05:33:39.141Z,1009.98
2017-03-12T05:34:40.374Z,1009.94
2017-03-12T05:35:41.663Z,1009.94
2017-03-12T05:36:42.920Z,1009.91
2017-03-12T05:37:44.153Z,1009.96
2017-03-12T05:38:45.398Z,1010
2017-03-12T05:39:46.644Z,1009.93
2017-03-12T05:40:47.976Z,1009.93
2017-03-12T05:41:49.227Z,1010.02
2017-03-12T05:42:50.489Z,1009.99
2017-03-12T05:43:51.772Z,1009.97
2017-03-12T05:44:52.989Z,1009.98
2017-03-12T05:45:54.285Z,1009.99
2017-03-12T05:46:55.551Z,1009.97
2017-03-12T05:47:56.895Z,1010.01
2017-03-12T05:48:58.122Z,1010.01
2017-03-12T05:49:59.368Z,1010.07
2017-03-12T05:51:00.649Z,1010
2017-03-12T05:52:01.879Z,1010.01
2017-03-12T05:53:03.260Z,1010.03
2017-03-12T05:54:04.514Z,1010.01
2017-03-12T05:55:05.756Z,1010.05
2017-03-12T05:56:07.004Z,1009.94
2017-03-12T05:57:08.476Z,1009.97
2017-03-12T05:58:09.744Z,1009.95
2017-03-12T05:59:11.037Z,1009.96
2017-03-12T06:00:12.261Z,1009.95
2017-03-12T06:01:13.502Z,1010
2017-03-12T06:02:14.742Z,1009.98
2017-03-12T06:03:15.979Z,1009.96
2017-03-12T06:04:17.251Z,1009.95
2017-03-12T06:05:18.484Z,1009.96
2017-03-12T06:06:19.714Z,1009.99
2017-03-12T06:07:21.019Z,1009.94
2017-03-12T06:08:22.280Z,1009.94
2017-03-12T06:09:23.527Z,1010.01
2017-03-12T06:10:24.775Z,1009.96
2017-03-12T06:11:26.084Z,1009.93
2017-03-12T06:12:27.366Z,1009.93
2017-03-12T06:13:28.638Z,1010.01
2017-03-12T06:14:29.909Z,1009.94
2017-03-12T06:15:31.154Z,1009.98
2017-03-12T06:16:32.443Z,1009.96
2017-03-12T06:17:33.735Z,1009.97
2017-03-12T06:18:34.994Z,1009.94
2017-03-12T06:19:36.243Z,1010.02
2017-03-12T06:20:37.502Z,1009.98
2017-03-12T06:21:38.787Z,1009.97
2017-03-12T06:22:40.052Z,1010.01
2017-03-12T06:23:41.492Z,1009.98
2017-03-12T06:24:42.828Z,1009.95
2017-03-12T06:25:44.107Z,1009.95
2017-03-12T06:26:45.365Z,1009.97
2017-03-12T06:27:46.634Z,1009.96
2017-03-12T06:28:47.902Z,1009.97
2017-03-12T06:29:49.250Z,1009.95
2017-03-12T06:30:50.485Z,1010
2017-03-12T06:31:51.759Z,1010.02
2017-03-12T06:32:53.011Z,1010.03
2017-03-12T06:33:54.300Z,1010.01
2017-03-12T06:34:55.630Z,1010.05
2017-03-12T06:35:56.919Z,1010.06
2017-03-12T06:36:58.165Z,1010.06
2017-03-12T06:37:59.422Z,1010.07
2017-03-12T06:39:00.695Z,1010.02
2017-03-12T06:40:01.941Z,1010.03
2017-03-12T06:41:03.220Z,1009.99
2017-03-12T06:42:04.542Z,1010.03
2017-03-12T06:43:05.743Z,1009.99
2017-03-12T06:44:06.991Z,1010.01
2017-03-12T06:45:08.247Z,1010.05
2017-03-12T06:46:09.500Z,1010.09
2017-03-12T06:47:10.805Z,1010.07
2017-03-12T06:48:12.099Z,1010.02
2017-03-12T06:49:13.345Z,1009.98
2017-03-12T06:50:14.613Z,1009.98
2017-03-12T06:51:15.943Z,1010
2017-03-12T06:52:17.214Z,1009.99
2017-03-12T06:53:18.511Z,1010
2017-03-12T06:54:19.815Z,1010.02
2017-03-12T06:55:21.274Z,1010
2017-03-12T06:56:22.501Z,1009.99
2017-03-12T06:57:23.787Z,1010.01
2017-03-12T06:58:25.127Z,1010.04
2017-03-12T06:59:26.392Z,1010
2017-03-12T07:00:27.799Z,1010.03
2017-03-12T07:01:29.086Z,1010.01
2017-03-12T07:02:30.353Z,1010.05
2017-03-12T07:03:31.649Z,1010.08
2017-03-12T07:04:32.959Z,1010.11
2017-03-12T07:05:34.246Z,1010.05
2017-03-12T07:06:35.512Z,1010.03
2017-03-12T07:07:36.794Z,1010.05
2017-03-12T07:08:38.054Z,1010.05
2017-03-12T07:09:39.332Z,1010.1
2017-03-12T07:10:40.627Z,1010.11
2017-03-12T07:11:41.875Z,1010.15
2017-03-12T07:12:43.162Z,1010.05
2017-03-12T07:13:44.426Z,1010.1
2017-03-12T07:14:45.686Z,1009.99
2017-03-12T07:15:47.048Z,1010.05
2017-03-12T07:16:48.226Z,1010.06
2017-03-12T07:17:49.520Z,1010.09
2017-03-12T07:18:50.983Z,1010.09
2017-03-12T07:19:52.261Z,1010.07
2017-03-12T07:20:53.551Z,1010.09
2017-03-12T07:21:54.899Z,1010.11
2017-03-12T07:22:56.194Z,1010.13
2017-03-12T07:23:57.455Z,1010.14
2017-03-12T07:24:58.717Z,1010.2
2017-03-12T07:26:00.023Z,1010.17
2017-03-12T07:27:01.291Z,1010.21
2017-03-12T07:28:02.574Z,1010.15
2017-03-12T07:29:03.848Z,1010.22
2017-03-12T07:30:05.117Z,1010.18
2017-03-12T07:31:06.383Z,1010.2
2017-03-12T07:32:07.658Z,1010.18
2017-03-12T07:33:08.943Z,1010.13
2017-03-12T07:34:10.200Z,1010.21
2017-03-12T07:35:11.625Z,1010.12
2017-03-12T07:36:12.937Z,1010.14
2017-03-12T07:37:14.193Z,1010.11
2017-03-12T07:38:15.470Z,1010.16
2017-03-12T07:39:16.762Z,1010.11
2017-03-12T07:40:18.036Z,1010.13
2017-03-12T07:41:19.365Z,1010.13
2017-03-12T07:42:20.636Z,1010.19
2017-03-12T07:43:22.345Z,1010.19
2017-03-12T07:44:23.505Z,1010.2
2017-03-12T07:45:25.678Z,1010.23
2017-03-12T07:46:30.587Z,1010.09
2017-03-12T07:47:48.065Z,1010.17
2017-03-12T07:48:53.472Z,1010.21
2017-03-12T07:54:51.166Z,1010.23
2017-03-12T08:00:09.240Z,1010.13
2017-03-12T08:10:00.243Z,1010.06
2017-03-12T08:50:57.922Z,1010.04
2017-03-12T08:51:59.152Z,1010.05
2017-03-12T08:53:00.558Z,1010.13
2017-03-12T08:54:01.845Z,1010.12
2017-03-12T08:55:03.155Z,1010.09
2017-03-12T08:56:04.441Z,1010.09
2017-03-12T08:57:05.739Z,1010.05
2017-03-12T08:58:07.046Z,1010.13
2017-03-12T08:59:08.543Z,1010.08
2017-03-12T09:00:09.800Z,1010.06
2017-03-12T09:01:11.111Z,1010.04
2017-03-12T09:02:12.408Z,1010.05
2017-03-12T09:03:13.742Z,1010.03
2017-03-12T09:04:15.111Z,1010.01
2017-03-12T09:05:16.594Z,1010.01
2017-03-12T09:06:18.359Z,1010.03
2017-03-12T09:07:19.759Z,1010.01
2017-03-12T09:08:21.143Z,1010.04
2017-03-12T09:09:22.418Z,1009.97
2017-03-12T09:10:23.689Z,1010.01
2017-03-12T09:11:25.030Z,1010.04
2017-03-12T09:12:26.411Z,1010.13
2017-03-12T09:13:27.691Z,1010.07
2017-03-12T09:14:28.967Z,1010.06
2017-03-12T09:15:30.325Z,1010.13
2017-03-12T09:16:31.675Z,1010.18
2017-03-12T09:17:32.941Z,1010.11
2017-03-12T09:18:34.235Z,1010.06
2017-03-12T09:19:35.580Z,1010.02
2017-03-12T09:20:36.904Z,1010.05
2017-03-12T09:21:38.229Z,1010.07
2017-03-12T09:22:39.595Z,1010.08
2017-03-12T09:23:40.959Z,1010.14
2017-03-12T09:24:42.299Z,1010.02
2017-03-12T09:25:43.979Z,1010.02
2017-03-12T09:26:46.063Z,1010
2017-03-12T09:27:48.218Z,1009.99
2017-03-12T09:28:50.020Z,1010.06
2017-03-12T09:29:52.933Z,1010.08
2017-03-12T09:30:54.773Z,1009.99
2017-03-12T09:31:56.503Z,1009.96
2017-03-12T09:32:58.034Z,1010.08
2017-03-12T09:33:59.436Z,1010.06
2017-03-12T09:35:00.795Z,1010.04
2017-03-12T09:36:02.109Z,1010
2017-03-12T09:37:03.435Z,1010.07
2017-03-12T09:38:04.779Z,1009.99
2017-03-12T09:39:06.179Z,1010
2017-03-12T09:40:07.568Z,1010.02
2017-03-12T09:41:09.040Z,1009.95
2017-03-12T09:42:10.449Z,1010.01
2017-03-12T09:43:11.796Z,1010.12
2017-03-12T09:44:13.265Z,1010.05
2017-03-12T09:45:14.783Z,1010.08
2017-03-12T09:46:16.321Z,1010.13
2017-03-12T09:47:17.974Z,1010.13
2017-03-12T09:48:19.791Z,1010.13
2017-03-12T09:49:21.115Z,1010.11
2017-03-12T09:50:22.596Z,1010.13
2017-03-12T09:51:24.579Z,1010.15
2017-03-12T09:52:27.038Z,1010.15
2017-03-12T10:25:10.580Z,1009.8
2017-03-12T11:01:55.802Z,1009.34
2017-03-12T11:02:57.089Z,1009.27
2017-03-12T11:03:58.335Z,1009.26
2017-03-12T11:04:59.592Z,1009.26
2017-03-12T11:06:00.840Z,1009.23
2017-03-12T11:07:02.143Z,1009.25
2017-03-12T11:08:03.462Z,1009.22
2017-03-12T11:09:04.779Z,1009.23
2017-03-12T11:10:06.001Z,1009.23
2017-03-12T11:11:07.302Z,1009.22
2017-03-12T11:12:08.577Z,1009.18
2017-03-12T11:13:09.906Z,1009.25
2017-03-12T11:14:11.166Z,1009.17
2017-03-12T11:15:12.490Z,1009.21
2017-03-12T11:16:13.768Z,1009.15
2017-03-12T11:17:15.154Z,1009.14
2017-03-12T11:18:16.422Z,1009.15
2017-03-12T11:19:17.687Z,1009.17
2017-03-12T11:20:18.980Z,1009.18
2017-03-12T11:21:20.289Z,1009.18
2017-03-12T11:22:21.540Z,1009.24
2017-03-12T11:23:22.793Z,1009.17
2017-03-12T11:24:24.059Z,1009.11
2017-03-12T11:25:25.366Z,1009.15
2017-03-12T11:26:26.618Z,1009.16
2017-03-12T11:27:27.895Z,1009.08
2017-03-12T11:28:29.271Z,1009.06
2017-03-12T11:29:30.524Z,1009.05
2017-03-12T11:30:31.779Z,1009.08
2017-03-12T11:31:33.042Z,1009.1
2017-03-12T11:32:34.323Z,1009.1
2017-03-12T11:33:35.791Z,1009.09
2017-03-12T11:34:37.037Z,1009.05
2017-03-12T11:35:38.290Z,1009.01
2017-03-12T11:36:39.577Z,1008.95
2017-03-12T11:37:40.840Z,1008.88
2017-03-12T11:38:42.173Z,1008.92
2017-03-12T11:39:43.566Z,1008.85
2017-03-12T11:40:44.846Z,1008.86
2017-03-12T11:41:46.176Z,1008.94
2017-03-12T11:42:47.424Z,1008.92
2017-03-12T11:43:48.681Z,1008.88
2017-03-12T11:44:49.951Z,1008.85
2017-03-12T11:45:51.331Z,1008.92
2017-03-12T11:46:52.583Z,1008.79
2017-03-12T11:47:53.838Z,1008.95
2017-03-12T11:48:55.153Z,1008.87
2017-03-12T11:49:56.352Z,1008.87
2017-03-12T11:50:57.822Z,1008.87
2017-03-12T11:51:59.058Z,1009.03
2017-03-12T11:53:00.296Z,1008.85
2017-03-12T11:54:01.634Z,1008.83
2017-03-12T11:55:03.005Z,1008.86
2017-03-12T11:56:04.260Z,1008.9
2017-03-12T11:57:05.505Z,1008.79
2017-03-12T11:58:06.740Z,1008.75
2017-03-12T11:59:08.002Z,1009.04
2017-03-12T12:00:09.267Z,1008.83
2017-03-12T12:01:10.498Z,1008.85
2017-03-12T12:02:11.814Z,1008.74
2017-03-12T12:03:13.152Z,1008.8
2017-03-12T12:04:14.375Z,1008.73
2017-03-12T12:05:15.644Z,1008.78
2017-03-12T12:06:16.904Z,1008.71
2017-03-12T12:07:18.172Z,1008.7
2017-03-12T12:08:19.452Z,1008.74
2017-03-12T12:09:20.701Z,1008.64
2017-03-12T12:10:21.961Z,1008.66
2017-03-12T12:11:23.182Z,1008.62
2017-03-12T12:12:24.505Z,1008.6
2017-03-12T12:13:25.795Z,1008.63
2017-03-12T12:14:27.073Z,1008.65
2017-03-12T12:15:28.351Z,1008.62
2017-03-12T12:16:29.587Z,1008.57
2017-03-12T12:17:30.839Z,1008.61
2017-03-12T12:18:32.196Z,1008.59
2017-03-12T12:19:33.544Z,1008.54
2017-03-12T12:20:34.806Z,1008.62
2017-03-12T12:21:36.046Z,1008.57
2017-03-12T12:22:37.319Z,1008.55
2017-03-12T12:23:38.557Z,1008.6
2017-03-12T12:24:39.853Z,1008.59
2017-03-12T12:25:41.157Z,1008.55
2017-03-12T12:26:42.387Z,1008.55
2017-03-12T12:27:43.630Z,1008.54
2017-03-12T12:28:44.885Z,1008.56
2017-03-12T12:29:46.138Z,1008.62
2017-03-12T12:30:47.487Z,1008.56
2017-03-12T12:31:48.634Z,1008.5
2017-03-12T12:32:49.912Z,1008.57
2017-03-12T12:33:51.210Z,1008.57
2017-03-12T12:34:52.461Z,1008.61
2017-03-12T12:35:53.699Z,1008.47
2017-03-12T12:36:54.942Z,1008.63
2017-03-12T12:37:56.231Z,1008.55
2017-03-12T12:38:57.571Z,1008.48
2017-03-12T12:39:58.823Z,1008.44
2017-03-12T12:41:00.082Z,1008.42
2017-03-12T12:42:01.359Z,1008.46
2017-03-12T12:43:02.626Z,1008.48
2017-03-12T12:44:03.873Z,1008.42
2017-03-12T12:45:05.131Z,1008.45
2017-03-12T12:46:06.413Z,1008.38
2017-03-12T12:47:07.670Z,1008.44
2017-03-12T12:48:08.922Z,1008.42
2017-03-12T12:49:10.206Z,1008.39
2017-03-12T12:50:11.601Z,1008.4
2017-03-12T12:51:12.853Z,1008.45
2017-03-12T12:52:14.111Z,1008.4
2017-03-12T12:53:15.367Z,1008.37
2017-03-12T12:54:16.639Z,1008.44
2017-03-12T12:55:17.876Z,1008.43
2017-03-12T12:56:19.174Z,1008.34
2017-03-12T12:57:20.448Z,1008.38
2017-03-12T12:58:21.675Z,1008.45
2017-03-12T12:59:22.924Z,1008.29
2017-03-12T13:00:24.237Z,1008.39
2017-03-12T13:01:25.510Z,1008.33
2017-03-12T13:02:26.796Z,1008.34
2017-03-12T13:03:28.037Z,1008.35
2017-03-12T13:04:29.296Z,1008.39
2017-03-12T13:05:30.538Z,1008.32
2017-03-12T13:06:31.797Z,1008.33
2017-03-12T13:07:33.064Z,1008.39
2017-03-12T13:08:34.313Z,1008.27
2017-03-12T13:09:35.577Z,1008.3
2017-03-12T13:10:36.828Z,1008.35
2017-03-12T13:11:38.072Z,1008.26
2017-03-12T13:12:39.342Z,1008.22
2017-03-12T13:13:40.570Z,1008.21
2017-03-12T13:14:41.854Z,1008.27
2017-03-12T13:15:43.218Z,1008.26
2017-03-12T13:16:44.468Z,1008.27
2017-03-12T13:17:45.746Z,1008.21
2017-03-12T13:18:46.962Z,1008.28
2017-03-12T13:19:48.299Z,1008.27
2017-03-12T13:20:49.523Z,1008.29
2017-03-12T13:21:50.804Z,1008.25
2017-03-12T13:22:52.049Z,1008.36
2017-03-12T13:23:53.314Z,1008.28
2017-03-12T13:24:54.560Z,1008.41
2017-03-12T13:25:55.810Z,1008.35
2017-03-12T13:26:57.303Z,1008.41
2017-03-12T13:27:58.499Z,1008.44
2017-03-12T13:28:59.742Z,1008.42
2017-03-12T13:30:00.986Z,1008.3
2017-03-12T13:31:02.324Z,1008.35
2017-03-12T13:32:03.577Z,1008.36
2017-03-12T13:33:04.812Z,1008.34
2017-03-12T13:34:06.093Z,1008.34
2017-03-12T13:35:07.411Z,1008.33
2017-03-12T13:36:08.660Z,1008.31
2017-03-12T13:37:09.891Z,1008.37
2017-03-12T13:38:11.143Z,1008.34
2017-03-12T13:39:12.449Z,1008.35
2017-03-12T13:40:13.779Z,1008.31
2017-03-12T13:41:15.052Z,1008.29
2017-03-12T13:42:16.284Z,1008.48
2017-03-12T13:43:17.516Z,1008.33
2017-03-12T13:44:18.802Z,1008.41
2017-03-12T13:45:20.315Z,1008.3
2017-03-12T13:46:21.643Z,1008.26
2017-03-12T13:47:22.881Z,1008.27
2017-03-12T13:48:24.136Z,1008.34
2017-03-12T13:49:25.370Z,1008.24
2017-03-12T13:50:26.661Z,1008.29
2017-03-12T13:51:27.933Z,1008.37
2017-03-12T13:52:29.280Z,1008.23
2017-03-12T13:53:30.508Z,1008.25
2017-03-12T13:54:31.748Z,1008.19
2017-03-12T13:55:32.993Z,1008.27
2017-03-12T13:56:34.229Z,1008.12
2017-03-12T13:57:35.493Z,1008.34
2017-03-12T13:58:36.764Z,1008.26
2017-03-12T13:59:38.001Z,1008.26
2017-03-12T14:00:39.295Z,1008.22
2017-03-12T14:01:40.528Z,1008.24
2017-03-12T14:02:41.840Z,1008.22
2017-03-12T14:03:43.118Z,1008.2
2017-03-12T14:04:44.352Z,1008.19
2017-03-12T14:05:45.636Z,1008.31
2017-03-12T14:06:46.848Z,1008.3
2017-03-12T14:07:48.177Z,1008.14
2017-03-12T14:08:49.434Z,1008.16
2017-03-12T14:09:50.703Z,1008.16
2017-03-12T14:10:51.996Z,1008.19
2017-03-12T14:11:53.247Z,1008.27
2017-03-12T14:12:54.481Z,1008.27
2017-03-12T14:13:55.733Z,1008.24
2017-03-12T14:14:56.975Z,1008.15
2017-03-12T14:15:58.270Z,1008.12
2017-03-12T14:16:59.547Z,1008.19
2017-03-12T14:18:00.799Z,1008.25
2017-03-12T14:19:02.059Z,1008.12
2017-03-12T14:20:03.317Z,1008.16
2017-03-12T14:21:04.578Z,1008.17
2017-03-12T14:22:05.853Z,1008.22
2017-03-12T14:23:07.105Z,1008.22
2017-03-12T14:24:08.357Z,1008.19
2017-03-12T14:25:09.610Z,1008.17
2017-03-12T14:26:10.872Z,1008.09
2017-03-12T14:27:12.123Z,1008.12
2017-03-12T14:28:13.443Z,1008.15
2017-03-12T14:29:14.669Z,1008.19
2017-03-12T14:30:15.926Z,1008.16